Time;durP1;ratioP1;P1;durP2;ratioP2;P2;SDS_P1;SDS_P2;PMS_P1;PMS_P2;Temp;Humidity;BMP_temperature;BMP_pressure;BME280_temperature;BME280_humidity;BME280_pressure;Samples;Min_cycle;Max_cycle;Signal;HPM_P1;HPM_P2
2023/09/01 00:01:15;;;;;;;3.60;2.50;;;;;;;17.05;81.36;94774.38;4990544;28;20269;-76
2023/09/01 00:03:41;;;;;;;4.10;2.78;;;;;;;16.87;81.71;94781.47;4991101;28;20213;-76
2023/09/01 00:06:15;;;;;;;6.03;2.40;;;;;;;16.83;82.09;94783.34;4992498;28;20225;-76
2023/09/01 00:08:43;;;;;;;4.95;2.58;;;;;;;16.84;81.85;94784.94;4994933;28;20210;-76
2023/09/01 00:11:10;;;;;;;5.03;2.22;;;;;;;16.72;82.20;94790.56;4994591;28;20629;-76
2023/09/01 00:13:39;;;;;;;4.53;2.80;;;;;;;16.62;83.09;94788.41;4994928;28;20233;-76
2023/09/01 00:16:05;;;;;;;6.00;2.72;;;;;;;16.62;82.97;94791.97;4993497;28;20237;-77
2023/09/01 00:18:33;;;;;;;5.03;2.58;;;;;;;16.66;83.01;94783.81;4994633;28;20693;-76
2023/09/01 00:21:00;;;;;;;5.78;2.90;;;;;;;16.63;82.68;94795.50;4994474;28;20299;-77
2023/09/01 00:23:26;;;;;;;5.45;3.35;;;;;;;16.69;83.50;94805.75;4994103;28;20280;-77
2023/09/01 00:25:54;;;;;;;5.40;3.00;;;;;;;16.68;83.39;94797.91;4993923;28;20240;-76
2023/09/01 00:28:21;;;;;;;5.97;2.95;;;;;;;16.59;83.58;94797.31;4994023;28;20659;-77
2023/09/01 00:30:57;;;;;;;4.30;2.28;;;;;;;16.65;83.67;94801.38;4994241;28;20629;-77
2023/09/01 00:33:26;;;;;;;5.75;2.78;;;;;;;16.68;82.96;94795.97;4993889;28;20189;-77
2023/09/01 00:35:53;;;;;;;5.43;2.58;;;;;;;16.67;82.74;94791.66;4993998;28;20233;-77
2023/09/01 00:38:20;;;;;;;6.15;2.80;;;;;;;16.71;82.78;94789.00;4994211;28;20197;-76
2023/09/01 00:40:48;;;;;;;3.53;2.22;;;;;;;16.68;82.73;94795.19;4993904;28;20217;-76
2023/09/01 00:43:15;;;;;;;4.22;2.60;;;;;;;16.69;83.20;94794.03;4994176;28;20639;-76
2023/09/01 00:45:42;;;;;;;3.38;2.38;;;;;;;16.59;83.09;94794.59;4994059;28;20217;-76
2023/09/01 00:48:12;;;;;;;5.38;2.78;;;;;;;16.52;83.17;94789.78;4993621;28;20292;-76
2023/09/01 00:50:40;;;;;;;6.05;2.97;;;;;;;16.55;83.64;94793.72;4993544;28;20231;-77
2023/09/01 00:53:07;;;;;;;3.65;2.00;;;;;;;16.52;83.07;94789.00;4993399;28;20216;-76
2023/09/01 00:55:34;;;;;;;4.35;2.50;;;;;;;16.33;84.57;94785.09;4993391;28;20309;-76
2023/09/01 00:58:02;;;;;;;4.55;2.30;;;;;;;16.39;83.60;94787.56;4993871;28;20253;-77
2023/09/01 01:00:31;;;;;;;6.25;3.08;;;;;;;16.22;84.36;94797.78;4993512;28;20205;-76
2023/09/01 01:02:59;;;;;;;4.30;2.30;;;;;;;16.28;84.44;94796.31;4993664;28;20293;-76
2023/09/01 01:05:33;;;;;;;4.85;2.15;;;;;;;16.29;84.18;94792.44;4993416;28;20617;-76
2023/09/01 01:08:10;;;;;;;5.13;2.70;;;;;;;16.35;84.83;94793.75;4993565;28;20225;-76
2023/09/01 01:10:46;;;;;;;6.03;2.40;;;;;;;16.30;84.11;94793.22;4993559;28;20194;-77
2023/09/01 01:13:19;;;;;;;5.35;2.85;;;;;;;16.36;83.42;94791.81;4993514;28;20252;-76
2023/09/01 01:15:47;;;;;;;5.57;2.90;;;;;;;16.41;82.75;94790.69;4992952;28;20264;-76
2023/09/01 01:18:18;;;;;;;5.43;2.85;;;;;;;16.42;83.09;94797.75;4991846;28;20308;-77
2023/09/01 01:20:52;;;;;;;6.10;2.40;;;;;;;16.33;83.59;94793.31;4992925;28;20205;-76
2023/09/01 01:23:20;;;;;;;6.28;2.25;;;;;;;16.31;83.54;94790.13;4993012;28;20605;-76
2023/09/01 01:25:48;;;;;;;5.15;2.35;;;;;;;16.16;84.35;94792.94;4993171;28;20361;-76
2023/09/01 01:28:16;;;;;;;5.47;2.97;;;;;;;16.07;85.50;94790.41;4992936;28;20622;-76
2023/09/01 01:30:43;;;;;;;3.30;2.50;;;;;;;16.06;85.89;94796.25;4993103;28;20229;-76
2023/09/01 01:33:23;;;;;;;8.57;2.58;;;;;;;15.92;86.76;94788.53;4993070;28;20706;-76
2023/09/01 01:36:03;;;;;;;3.17;2.40;;;;;;;15.81;86.86;94787.50;4993040;28;20534;-76
2023/09/01 01:38:35;;;;;;;4.75;2.78;;;;;;;15.79;87.51;94789.81;4992870;28;20193;-77
2023/09/01 01:41:09;;;;;;;4.53;2.33;;;;;;;15.87;87.25;94788.78;4993183;28;20252;-77
2023/09/01 01:43:37;;;;;;;6.40;2.28;;;;;;;15.91;86.51;94786.94;4993175;28;20552;-76
2023/09/01 01:46:05;;;;;;;7.15;3.30;;;;;;;15.97;87.23;94789.06;4992444;28;20206;-77
2023/09/01 01:48:36;;;;;;;5.75;2.40;;;;;;;15.98;86.53;94782.44;4992811;28;20206;-76
2023/09/01 01:51:05;;;;;;;5.20;2.08;;;;;;;15.95;86.02;94782.34;4992373;28;20260;-76
2023/09/01 01:53:34;;;;;;;3.53;2.15;;;;;;;15.87;86.46;94786.06;4992540;28;20297;-76
2023/09/01 01:56:02;;;;;;;3.65;2.30;;;;;;;15.83;86.14;94785.22;4992241;28;20209;-76
2023/09/01 01:58:28;;;;;;;3.08;2.33;;;;;;;15.84;85.56;94787.59;4992313;28;20210;-76
2023/09/01 02:00:55;;;;;;;5.78;2.33;;;;;;;15.82;85.52;94778.16;4992044;28;20232;-77
2023/09/01 02:03:22;;;;;;;4.43;2.28;;;;;;;15.88;85.56;94787.66;4991986;28;20209;-76
2023/09/01 02:05:49;;;;;;;6.50;2.53;;;;;;;15.84;86.07;94781.34;4992720;28;20209;-76
2023/09/01 02:08:16;;;;;;;3.53;2.17;;;;;;;15.75;86.39;94778.78;4992319;28;20297;-76
2023/09/01 02:10:44;;;;;;;5.30;2.60;;;;;;;15.76;87.16;94793.22;4992509;28;20572;-76
2023/09/01 02:13:11;;;;;;;6.78;2.40;;;;;;;15.67;87.52;94789.91;4991960;28;20276;-76
2023/09/01 02:15:38;;;;;;;3.88;2.47;;;;;;;15.69;87.40;94787.63;4992117;28;20649;-76
2023/09/01 02:18:08;;;;;;;4.05;2.22;;;;;;;15.71;88.30;94782.59;4992097;28;20201;-77
2023/09/01 02:20:37;;;;;;;5.20;2.63;;;;;;;15.73;88.12;94796.66;4992549;28;20683;-76
2023/09/01 02:23:05;;;;;;;5.43;2.53;;;;;;;15.53;88.59;94793.88;4991897;28;20217;-77
2023/09/01 02:25:37;;;;;;;4.97;2.20;;;;;;;15.46;88.92;94795.63;4991711;28;20202;-76
2023/09/01 02:28:06;;;;;;;5.93;2.60;;;;;;;15.42;89.64;94795.56;4991625;28;20216;-76
2023/09/01 02:30:33;;;;;;;3.58;2.30;;;;;;;15.31;90.50;94791.00;4991925;28;20297;-76
2023/09/01 02:33:00;;;;;;;3.70;2.00;;;;;;;15.46;90.15;94796.44;4991882;28;20221;-77
2023/09/01 02:35:27;;;;;;;5.53;2.28;;;;;;;15.56;89.69;94795.16;4991538;28;20228;-76
2023/09/01 02:37:53;;;;;;;6.15;3.22;;;;;;;15.60;88.46;94802.25;4991753;28;20330;-77
2023/09/01 02:40:24;;;;;;;7.63;3.42;;;;;;;15.58;87.93;94801.03;4991973;28;20669;-76
2023/09/01 02:42:51;;;;;;;3.65;2.30;;;;;;;15.51;88.33;94798.91;4991982;28;20194;-77
2023/09/01 02:45:20;;;;;;;4.43;2.40;;;;;;;15.54;87.90;94800.94;4991857;28;20292;-76
2023/09/01 02:47:46;;;;;;;5.00;1.95;;;;;;;15.54;88.39;94800.13;4991430;28;20222;-77
2023/09/01 02:50:13;;;;;;;4.43;2.42;;;;;;;15.51;88.67;94801.63;4991433;28;20214;-76
2023/09/01 02:52:40;;;;;;;5.00;2.50;;;;;;;15.56;88.37;94793.19;4991689;28;20205;-76
2023/09/01 02:55:08;;;;;;;5.47;2.30;;;;;;;15.52;88.75;94792.28;4992065;28;20201;-76
2023/09/01 02:57:35;;;;;;;3.53;2.70;;;;;;;15.43;89.28;94788.97;4991808;28;20281;-76
2023/09/01 03:00:14;;;;;;;6.70;3.60;;;;;;;15.42;89.58;94787.38;4991410;28;20308;-76
2023/09/01 03:02:43;;;;;;;5.97;3.72;;;;;;;15.48;89.86;94790.59;4972180;28;20190;-76
2023/09/01 03:05:10;;;;;;;6.88;3.55;;;;;;;15.44;89.95;94782.34;4971897;28;20301;-76
2023/09/01 03:07:37;;;;;;;6.72;3.13;;;;;;;15.51;90.11;94785.25;4972049;28;20237;-76
2023/09/01 03:10:07;;;;;;;8.10;3.80;;;;;;;15.49;90.56;94801.19;4972442;28;20275;-76
2023/09/01 03:12:35;;;;;;;5.80;3.30;;;;;;;15.43;90.56;94794.44;4972162;28;20250;-76
2023/09/01 03:15:02;;;;;;;5.03;3.53;;;;;;;15.39;91.08;94801.72;4972213;28;20214;-76
2023/09/01 03:17:30;;;;;;;5.45;3.38;;;;;;;15.32;90.88;94809.72;4971627;28;20273;-76
2023/09/01 03:19:58;;;;;;;7.13;3.83;;;;;;;15.18;90.84;94803.91;4972146;28;20701;-77
2023/09/01 03:22:25;;;;;;;5.95;3.33;;;;;;;15.27;90.16;94805.34;4988222;28;20221;-77
2023/09/01 03:24:53;;;;;;;5.45;2.30;;;;;;;15.08;90.89;94816.16;4991237;28;20213;-77
2023/09/01 03:27:21;;;;;;;3.53;2.42;;;;;;;15.19;91.17;94810.97;4990845;28;20264;-76
2023/09/01 03:29:52;;;;;;;5.82;2.88;;;;;;;15.24;90.74;94810.72;4991289;28;20209;-76
2023/09/01 03:32:18;;;;;;;5.25;2.30;;;;;;;15.22;90.58;94813.00;4991274;28;20608;-76
2023/09/01 03:34:45;;;;;;;5.68;2.80;;;;;;;15.17;90.71;94813.28;4991377;28;20209;-76
2023/09/01 03:37:14;;;;;;;2.75;1.92;;;;;;;15.22;90.25;94821.97;4991194;28;20715;-75
2023/09/01 03:39:40;;;;;;;7.28;3.17;;;;;;;15.30;89.26;94812.03;4991275;28;20276;-76
2023/09/01 03:42:07;;;;;;;6.50;2.38;;;;;;;15.32;89.08;94815.19;4994517;28;20212;-77
2023/09/01 03:44:34;;;;;;;5.72;2.60;;;;;;;15.31;89.05;94807.38;4994797;28;20202;-76
2023/09/01 03:47:01;;;;;;;5.40;2.60;;;;;;;15.33;88.70;94805.84;4995012;28;20320;-76
2023/09/01 03:49:28;;;;;;;2.88;2.17;;;;;;;15.31;88.96;94807.38;4994655;28;20208;-77
2023/09/01 03:51:54;;;;;;;3.85;2.25;;;;;;;15.32;88.48;94815.19;4994855;28;20568;-76
2023/09/01 03:54:22;;;;;;;4.07;2.50;;;;;;;15.39;88.47;94809.91;4994583;28;20209;-76
2023/09/01 03:56:50;;;;;;;4.38;2.15;;;;;;;15.26;88.31;94805.69;4994873;28;20690;-77
2023/09/01 03:59:16;;;;;;;5.03;2.25;;;;;;;15.29;88.25;94815.91;4994412;28;20209;-76
2023/09/01 04:01:44;;;;;;;6.65;2.67;;;;;;;15.43;88.46;94819.00;4994604;28;20213;-76
2023/09/01 04:04:11;;;;;;;6.93;2.50;;;;;;;15.52;88.76;94819.59;4994604;28;20241;-77
2023/09/01 04:06:38;;;;;;;10.25;2.53;;;;;;;15.76;87.48;94823.28;4994340;28;20209;-77
2023/09/01 04:09:05;;;;;;;8.10;2.70;;;;;;;15.89;87.37;94817.34;4994504;28;20216;-77
2023/09/01 04:11:33;;;;;;;4.20;2.63;;;;;;;16.08;86.92;94816.59;4994506;28;20244;-76
2023/09/01 04:14:01;;;;;;;4.65;2.22;;;;;;;16.65;84.98;94815.06;4994416;28;20229;-76
2023/09/01 04:16:28;;;;;;;8.40;2.63;;;;;;;17.38;81.84;94819.50;4994091;28;20241;-77
2023/09/01 04:18:55;;;;;;;4.40;2.80;;;;;;;17.93;79.11;94818.06;4994275;28;20268;-77
2023/09/01 04:21:22;;;;;;;7.25;2.45;;;;;;;18.60;75.99;94825.63;4993898;28;20301;-77
2023/09/01 04:23:49;;;;;;;4.53;2.45;;;;;;;19.47;72.00;94816.75;4994235;28;20213;-77
2023/09/01 04:26:16;;;;;;;4.88;2.60;;;;;;;19.55;71.04;94823.09;4994313;28;20213;-77
2023/09/01 04:28:44;;;;;;;7.07;2.85;;;;;;;20.57;68.35;94817.53;4994351;28;20248;-76
2023/09/01 04:31:16;;;;;;;4.78;2.95;;;;;;;20.83;67.55;94819.19;4994534;28;20198;-76
2023/09/01 04:33:43;;;;;;;7.45;3.00;;;;;;;21.62;64.92;94809.13;4994432;28;20206;-76
2023/09/01 04:36:10;;;;;;;7.88;3.97;;;;;;;22.02;62.84;94820.97;4994123;28;20296;-77
2023/09/01 04:38:37;;;;;;;6.80;3.67;;;;;;;22.39;61.36;94810.25;4994293;28;20206;-76
2023/09/01 04:41:04;;;;;;;9.10;3.85;;;;;;;22.89;59.58;94796.28;4994163;28;20206;-76
2023/09/01 04:43:31;;;;;;;7.15;3.25;;;;;;;23.43;57.80;94808.59;4993986;28;20264;-76
2023/09/01 04:45:59;;;;;;;6.20;3.60;;;;;;;23.43;57.81;94807.81;4994050;28;20243;-76
2023/09/01 04:48:26;;;;;;;12.55;3.75;;;;;;;23.47;57.40;94814.13;4993826;28;20233;-77
2023/09/01 04:50:53;;;;;;;8.80;3.60;;;;;;;23.09;58.35;94822.25;4994152;28;20210;-77
2023/09/01 04:53:21;;;;;;;7.82;3.50;;;;;;;23.26;58.20;94815.81;4993767;28;20214;-76
2023/09/01 04:55:48;;;;;;;9.68;3.60;;;;;;;23.04;58.42;94831.75;4993835;28;20296;-77
2023/09/01 04:58:15;;;;;;;6.38;3.42;;;;;;;23.36;58.17;94826.03;4993561;28;20248;-76
2023/09/01 05:00:42;;;;;;;12.82;3.83;;;;;;;24.20;56.04;94828.56;4993773;28;20206;-77
2023/09/01 05:03:11;;;;;;;5.70;3.47;;;;;;;25.12;53.16;94826.81;4993679;28;20328;-77
2023/09/01 05:05:38;;;;;;;8.50;3.55;;;;;;;25.62;51.39;94828.88;4993388;28;20213;-77
2023/09/01 05:08:05;;;;;;;9.10;3.90;;;;;;;26.07;50.15;94830.16;4993438;28;20280;-77
2023/09/01 05:10:32;;;;;;;7.35;4.13;;;;;;;25.76;49.99;94842.56;4993607;28;20205;-77
2023/09/01 05:12:58;;;;;;;10.40;4.03;;;;;;;25.49;50.83;94840.53;4993461;28;20626;-77
2023/09/01 05:15:25;;;;;;;8.68;4.20;;;;;;;26.06;50.00;94844.47;4992948;28;20206;-76
2023/09/01 05:17:52;;;;;;;6.28;3.80;;;;;;;26.46;48.01;94850.94;4993433;28;20256;-77
2023/09/01 05:20:20;;;;;;;7.45;4.20;;;;;;;26.48;47.89;94849.31;4993291;28;20209;-76
2023/09/01 05:22:47;;;;;;;10.18;4.70;;;;;;;26.30;48.24;94842.50;4974164;28;20618;-77
2023/09/01 05:25:14;;;;;;;7.53;4.32;;;;;;;27.83;45.22;94843.00;4973837;28;20317;-76
2023/09/01 05:27:41;;;;;;;10.07;5.10;;;;;;;27.83;45.05;94845.78;4974050;28;20627;-77
2023/09/01 05:30:09;;;;;;;6.78;4.72;;;;;;;27.89;44.41;94838.44;4974001;28;20637;-77
2023/09/01 05:32:35;;;;;;;10.07;4.60;;;;;;;28.05;44.15;94844.03;4973671;28;20620;-77
2023/09/01 05:35:03;;;;;;;10.23;5.13;;;;;;;28.32;43.86;94854.16;4973859;28;20580;-77
2023/09/01 05:37:31;;;;;;;10.30;5.85;;;;;;;27.99;44.10;94854.16;4973668;28;20555;-77
2023/09/01 05:39:57;;;;;;;13.65;6.25;;;;;;;28.74;42.41;94847.47;4973775;28;20671;-77
2023/09/01 05:42:24;;;;;;;13.70;7.28;;;;;;;28.45;42.75;94857.78;4973574;28;20671;-76
2023/09/01 05:44:51;;;;;;;12.23;7.22;;;;;;;29.06;41.40;94857.78;4973620;28;20206;-76
2023/09/01 05:47:18;;;;;;;12.13;7.20;;;;;;;28.59;42.36;94851.84;4973073;28;20234;-76
2023/09/01 05:49:45;;;;;;;12.90;7.28;;;;;;;27.11;44.92;94857.66;4973545;28;20202;-76
2023/09/01 05:52:11;;;;;;;13.77;8.05;;;;;;;28.16;43.94;94852.13;4973504;28;20206;-77
2023/09/01 05:54:40;;;;;;;14.02;7.68;;;;;;;26.28;47.00;94858.75;4973026;28;20265;-77
2023/09/01 05:57:06;;;;;;;17.15;7.72;;;;;;;27.22;45.80;94861.00;4973213;28;20660;-77
2023/09/01 05:59:33;;;;;;;11.48;5.78;;;;;;;26.71;46.42;94851.25;4972967;28;20634;-76
2023/09/01 06:02:00;;;;;;;10.30;5.10;;;;;;;26.67;47.38;94861.66;4988606;28;20260;-77
2023/09/01 06:04:27;;;;;;;10.70;4.32;;;;;;;26.62;46.83;94859.38;4991885;28;20217;-77
2023/09/01 06:06:53;;;;;;;9.23;3.60;;;;;;;25.63;49.15;94861.00;4992323;28;20206;-76
2023/09/01 06:09:21;;;;;;;7.28;3.95;;;;;;;26.41;47.86;94859.75;4991813;28;20229;-75
2023/09/01 06:11:49;;;;;;;4.57;3.40;;;;;;;27.60;45.95;94857.84;4992254;28;20217;-76
2023/09/01 06:14:16;;;;;;;6.65;3.25;;;;;;;27.55;45.01;94852.75;4992607;28;20729;-77
2023/09/01 06:16:44;;;;;;;6.68;3.33;;;;;;;25.63;50.26;94866.53;4991881;28;20233;-76
2023/09/01 06:19:11;;;;;;;6.57;3.33;;;;;;;25.80;49.94;94859.94;4992378;28;20247;-77
2023/09/01 06:21:38;;;;;;;7.43;3.30;;;;;;;25.10;50.72;94874.34;4991531;28;20301;-75
2023/09/01 06:24:05;;;;;;;7.03;3.03;;;;;;;24.86;51.77;94880.16;4992012;28;20213;-76
2023/09/01 06:26:32;;;;;;;7.07;2.92;;;;;;;25.45;50.73;94878.63;4991847;28;20210;-76
2023/09/01 06:29:00;;;;;;;9.93;3.30;;;;;;;25.70;50.21;94871.97;4991850;28;20237;-76
2023/09/01 06:31:27;;;;;;;7.72;3.05;;;;;;;26.33;48.14;94869.44;4991706;28;20213;-76
2023/09/01 06:33:53;;;;;;;6.63;3.63;;;;;;;26.83;47.33;94870.09;4992255;28;20611;-76
2023/09/01 06:36:20;;;;;;;7.90;2.95;;;;;;;27.12;47.47;94875.13;4991644;28;20709;-76
2023/09/01 06:38:47;;;;;;;6.57;3.25;;;;;;;27.45;46.81;94879.59;4991844;28;20209;-77
2023/09/01 06:41:14;;;;;;;8.50;3.38;;;;;;;26.54;47.65;94885.72;4991831;28;20216;-76
2023/09/01 06:43:41;;;;;;;6.70;3.13;;;;;;;26.77;46.77;94885.72;4991932;28;20647;-77
2023/09/01 06:46:09;;;;;;;7.03;3.65;;;;;;;27.09;46.74;94881.53;4992117;28;20222;-77
2023/09/01 06:48:36;;;;;;;9.82;3.60;;;;;;;27.87;45.43;94879.91;4991398;28;20232;-76
2023/09/01 06:51:03;;;;;;;5.95;3.00;;;;;;;28.61;43.71;94882.88;4991524;28;20210;-76
2023/09/01 06:53:30;;;;;;;5.05;2.80;;;;;;;28.75;43.00;94881.72;4991676;28;20210;-77
2023/09/01 06:55:57;;;;;;;6.55;2.88;;;;;;;27.01;47.05;94896.81;4991759;28;20236;-77
2023/09/01 06:58:24;;;;;;;6.05;3.10;;;;;;;27.01;46.74;94899.59;4991696;28;20629;-77
2023/09/01 07:00:52;;;;;;;5.75;2.72;;;;;;;26.13;48.03;94892.31;4991597;28;20197;-77
2023/09/01 07:03:21;;;;;;;5.82;2.88;;;;;;;27.16;46.53;94892.53;4991538;28;20292;-75
2023/09/01 07:05:55;;;;;;;5.05;2.55;;;;;;;26.95;46.43;94898.50;4991444;28;20631;-75
2023/09/01 07:08:22;;;;;;;4.75;3.15;;;;;;;28.10;45.11;94890.88;4991517;28;20229;-76
2023/09/01 07:10:48;;;;;;;7.53;2.50;;;;;;;27.91;44.50;94888.94;4991223;28;20206;-77
2023/09/01 07:13:15;;;;;;;5.72;2.72;;;;;;;26.66;46.61;94892.66;4991495;28;20229;-76
2023/09/01 07:15:48;;;;;;;5.22;3.20;;;;;;;25.83;48.99;94903.53;4994065;28;20246;-76
2023/09/01 07:18:15;;;;;;;5.78;2.95;;;;;;;25.47;50.29;94906.75;4995834;28;20232;-76
2023/09/01 07:20:44;;;;;;;9.55;2.95;;;;;;;25.76;49.89;94911.94;4995051;28;20206;-76
2023/09/01 07:23:10;;;;;;;9.23;3.55;;;;;;;25.43;50.70;94914.31;4995593;28;20213;-76
2023/09/01 07:25:37;;;;;;;5.63;2.80;;;;;;;25.52;49.98;94905.50;4994895;28;20209;-77
2023/09/01 07:28:04;;;;;;;3.88;2.30;;;;;;;25.05;50.71;94913.59;4995126;28;20225;-76
2023/09/01 07:30:33;;;;;;;4.45;3.20;;;;;;;25.53;50.39;94911.84;4994938;28;20304;-76
2023/09/01 07:33:00;;;;;;;5.78;2.78;;;;;;;25.94;49.46;94904.16;4995489;28;20392;-76
2023/09/01 07:35:27;;;;;;;3.83;2.70;;;;;;;26.73;47.37;94900.88;4995262;28;20569;-76
2023/09/01 07:37:55;;;;;;;4.22;2.80;;;;;;;27.97;45.23;94898.34;4995643;28;20202;-76
2023/09/01 07:40:22;;;;;;;4.60;2.63;;;;;;;28.21;44.71;94899.00;4994838;28;20209;-75
2023/09/01 07:42:49;;;;;;;5.60;3.00;;;;;;;28.34;43.85;94894.31;4994880;28;20255;-76
2023/09/01 07:45:16;;;;;;;6.40;3.25;;;;;;;27.36;46.03;94901.66;4995219;28;20209;-78
2023/09/01 07:47:44;;;;;;;8.85;2.75;;;;;;;27.36;46.24;94912.00;4995130;28;20210;-78
2023/09/01 07:50:11;;;;;;;8.45;3.50;;;;;;;27.38;46.10;94904.78;4995381;28;20716;-78
2023/09/01 07:52:38;;;;;;;7.15;3.20;;;;;;;27.34;45.75;94904.06;4994997;28;20206;-77
2023/09/01 07:55:07;;;;;;;4.97;3.03;;;;;;;27.44;45.59;94902.28;4994994;28;20205;-78
2023/09/01 07:57:33;;;;;;;4.43;3.20;;;;;;;27.78;44.49;94896.41;4994323;28;20213;-77
2023/09/01 08:00:00;;;;;;;5.53;3.05;;;;;;;27.67;45.06;94887.50;4995012;28;20569;-77
2023/09/01 08:02:28;;;;;;;7.57;3.38;;;;;;;27.04;46.73;94890.41;4994426;28;20267;-77
2023/09/01 08:04:55;;;;;;;4.47;3.13;;;;;;;26.83;47.45;94892.31;4994959;28;20209;-78
2023/09/01 08:07:21;;;;;;;7.57;3.38;;;;;;;26.79;47.22;94896.38;4994894;28;20209;-77
2023/09/01 08:09:48;;;;;;;5.35;3.45;;;;;;;26.64;46.57;94893.09;4995018;28;20299;-77
2023/09/01 08:12:16;;;;;;;5.50;3.65;;;;;;;26.08;48.73;94892.03;4994446;28;20218;-77
2023/09/01 08:14:43;;;;;;;7.68;3.45;;;;;;;26.56;46.94;94897.19;4994730;28;20216;-77
2023/09/01 08:17:10;;;;;;;6.18;3.85;;;;;;;25.72;49.57;94900.88;4994419;28;20249;-77
2023/09/01 08:19:40;;;;;;;4.32;3.58;;;;;;;26.27;47.67;94893.31;4994589;28;20627;-77
2023/09/01 08:22:06;;;;;;;6.10;4.45;;;;;;;25.06;50.30;94903.31;4994258;28;20293;-77
2023/09/01 08:24:33;;;;;;;5.65;4.38;;;;;;;25.90;48.67;94897.84;4994477;28;20630;-77
2023/09/01 08:27:01;;;;;;;6.13;4.38;;;;;;;25.85;48.92;94895.53;4993854;28;20206;-78
2023/09/01 08:29:31;;;;;;;5.60;4.35;;;;;;;25.58;49.61;94892.72;4994034;28;20229;-77
2023/09/01 08:32:00;;;;;;;6.25;4.30;;;;;;;25.02;49.29;94894.25;4994067;28;20214;-77
2023/09/01 08:34:27;;;;;;;6.05;4.65;;;;;;;25.12;48.92;94904.44;4994394;28;20765;-77
2023/09/01 08:36:54;;;;;;;6.57;4.75;;;;;;;25.00;49.73;94907.75;4994355;28;20598;-77
2023/09/01 08:39:21;;;;;;;7.20;4.40;;;;;;;24.28;50.66;94901.31;4994282;28;20202;-78
2023/09/01 08:41:50;;;;;;;6.45;4.40;;;;;;;24.50;50.08;94899.91;4993730;28;20257;-77
2023/09/01 08:44:20;;;;;;;5.05;3.85;;;;;;;24.98;50.13;94887.97;4994194;28;20201;-77
2023/09/01 08:46:49;;;;;;;6.10;4.75;;;;;;;24.85;49.51;94892.44;4993966;28;20194;-77
2023/09/01 08:49:17;;;;;;;6.05;4.50;;;;;;;25.62;48.32;94885.19;4993749;28;20226;-76
2023/09/01 08:51:47;;;;;;;5.25;4.45;;;;;;;25.89;48.28;94890.72;4993897;28;20272;-76
2023/09/01 08:54:18;;;;;;;5.63;4.53;;;;;;;26.05;46.98;94874.22;4994466;28;20280;-76
2023/09/01 08:56:45;;;;;;;5.57;4.75;;;;;;;25.39;47.79;94887.84;4993872;28;20264;-75
2023/09/01 08:59:12;;;;;;;7.90;4.55;;;;;;;25.54;47.18;94882.91;4993795;28;20570;-77
2023/09/01 09:01:40;;;;;;;6.22;4.28;;;;;;;25.36;nan;94886.69;4993614;28;20348;-76
2023/09/01 09:04:08;;;;;;;5.95;3.97;;;;;;;26.11;46.66;94869.75;4993652;28;20265;-77
2023/09/01 09:06:36;;;;;;;7.30;4.53;;;;;;;26.19;45.91;94874.00;4993470;28;20202;-76
2023/09/01 09:09:11;;;;;;;5.03;4.10;;;;;;;26.67;44.78;94866.44;4993828;28;20690;-77
2023/09/01 09:11:39;;;;;;;4.53;3.88;;;;;;;26.83;44.32;94869.31;4993424;28;20193;-76
2023/09/01 09:14:06;;;;;;;5.80;4.38;;;;;;;26.55;44.70;94870.63;4993219;28;20264;-76
2023/09/01 09:16:33;;;;;;;4.85;4.38;;;;;;;26.75;44.98;94874.22;4993300;28;20320;-77
2023/09/01 09:19:11;;;;;;;8.23;4.18;;;;;;;27.08;43.82;94871.63;4993602;28;20206;-76
2023/09/01 09:21:37;;;;;;;6.15;4.65;;;;;;;27.71;42.71;94858.38;4993487;28;20567;-76
2023/09/01 09:24:07;;;;;;;7.03;4.32;;;;;;;27.07;43.89;94872.81;4993215;28;20205;-77
2023/09/01 09:26:33;;;;;;;6.13;4.70;;;;;;;27.33;43.75;94857.22;4993344;28;20663;-77
2023/09/01 09:29:06;;;;;;;5.20;3.92;;;;;;;27.47;42.58;94857.66;4993064;28;20229;-77
2023/09/01 09:31:36;;;;;;;6.93;4.25;;;;;;;26.71;44.11;94856.81;4993040;28;20197;-76
2023/09/01 09:34:15;;;;;;;6.93;4.57;;;;;;;26.37;44.80;94853.50;4993051;28;20196;-77
2023/09/01 09:36:41;;;;;;;4.95;4.15;;;;;;;26.42;44.56;94861.31;4993180;28;20194;-77
2023/09/01 09:39:22;;;;;;;7.18;4.30;;;;;;;27.08;43.51;94854.94;4992286;28;20663;-76
2023/09/01 09:41:49;;;;;;;7.55;4.53;;;;;;;26.33;44.06;94852.75;4993283;28;20289;-76
2023/09/01 09:44:23;;;;;;;6.13;4.70;;;;;;;26.27;44.05;94848.84;4992682;28;20263;-76
2023/09/01 09:46:50;;;;;;;5.45;4.05;;;;;;;26.80;43.95;94840.34;4992971;28;20716;-77
2023/09/01 09:49:19;;;;;;;11.13;4.40;;;;;;;26.82;42.82;94840.72;4992882;28;20698;-77
2023/09/01 09:51:50;;;;;;;8.23;4.72;;;;;;;27.33;42.24;94838.53;4992842;28;20213;-76
2023/09/01 09:54:21;;;;;;;5.28;4.38;;;;;;;26.82;42.99;94846.28;4992533;28;20277;-77
2023/09/01 09:56:50;;;;;;;4.75;4.30;;;;;;;26.85;42.81;94845.44;4992781;28;20562;-76
2023/09/01 09:59:24;;;;;;;5.05;4.15;;;;;;;26.80;42.98;94843.13;4992203;28;20288;-76
2023/09/01 10:01:53;;;;;;;6.80;4.18;;;;;;;26.71;42.53;94845.69;4992570;28;20669;-77
2023/09/01 10:04:21;;;;;;;5.85;4.65;;;;;;;26.50;43.16;94840.56;4992865;28;20213;-77
2023/09/01 10:06:48;;;;;;;7.10;4.88;;;;;;;26.29;43.41;94840.91;4992624;28;20219;-77
2023/09/01 10:09:17;;;;;;;5.55;4.18;;;;;;;25.87;44.29;94837.63;4992421;28;20225;-77
2023/09/01 10:11:45;;;;;;;6.30;4.25;;;;;;;26.00;44.12;94841.38;4992754;28;20212;-77
2023/09/01 10:14:13;;;;;;;5.70;4.15;;;;;;;25.75;44.78;94832.66;4992510;28;20690;-77
2023/09/01 10:16:40;;;;;;;6.07;4.28;;;;;;;25.82;44.85;94836.13;4992142;28;20242;-77
2023/09/01 10:19:10;;;;;;;5.68;3.80;;;;;;;26.10;43.87;94832.06;4992211;28;20206;-77
2023/09/01 10:21:41;;;;;;;5.63;4.20;;;;;;;27.12;41.79;94830.63;4991939;28;20289;-77
2023/09/01 10:24:13;;;;;;;6.65;4.25;;;;;;;27.67;41.22;94826.25;4992119;28;20229;-77
2023/09/01 10:26:41;;;;;;;5.28;3.88;;;;;;;28.13;39.85;94834.31;4992201;28;20189;-77
2023/09/01 10:29:08;;;;;;;6.75;3.65;;;;;;;28.08;40.43;94831.25;4991924;28;20237;-77
2023/09/01 10:31:36;;;;;;;5.22;3.80;;;;;;;27.45;41.96;94826.72;4992458;28;20622;-78
2023/09/01 10:34:10;;;;;;;5.40;3.78;;;;;;;27.47;42.48;94835.41;4992373;28;20264;-77
2023/09/01 10:36:39;;;;;;;5.85;3.88;;;;;;;27.00;42.76;94840.41;4991965;28;20199;-77
2023/09/01 10:39:23;;;;;;;6.95;4.10;;;;;;;26.61;42.79;94835.56;4992021;28;20209;-77
2023/09/01 10:41:57;;;;;;;6.53;4.00;;;;;;;26.79;42.98;94838.78;4992300;28;20589;-76
2023/09/01 10:44:26;;;;;;;6.93;4.05;;;;;;;27.40;42.03;94835.56;4992198;28;20524;-77
2023/09/01 10:46:53;;;;;;;5.22;3.88;;;;;;;27.91;40.46;94820.09;4991732;28;20292;-77
2023/09/01 10:49:20;;;;;;;6.47;3.70;;;;;;;28.06;39.87;94825.31;4991688;28;20237;-77
2023/09/01 10:51:49;;;;;;;4.68;3.50;;;;;;;27.67;40.06;94823.47;4991676;28;20264;-76
2023/09/01 10:54:41;;;;;;;6.75;3.58;;;;;;;27.26;41.25;94819.19;4992004;28;20209;-76
2023/09/01 10:57:12;;;;;;;5.47;3.80;;;;;;;27.76;41.29;94812.50;4991948;28;20233;-77
2023/09/01 10:59:38;;;;;;;6.15;3.53;;;;;;;26.72;41.52;94819.47;4991386;28;20194;-76
2023/09/01 11:02:18;;;;;;;5.78;3.40;;;;;;;26.25;43.29;94823.50;4992064;28;20205;-77
2023/09/01 11:04:45;;;;;;;6.72;3.70;;;;;;;26.46;41.90;94814.81;4991770;28;20674;-77
2023/09/01 11:07:14;;;;;;;5.30;3.80;;;;;;;26.38;42.09;94816.94;4991771;28;20212;-77
2023/09/01 11:09:57;;;;;;;5.05;3.10;;;;;;;26.47;42.37;94811.63;4991463;28;20225;-76
2023/09/01 11:12:31;;;;;;;5.70;3.75;;;;;;;26.35;42.76;94806.69;4992116;28;20190;-76
2023/09/01 11:15:00;;;;;;;5.28;3.55;;;;;;;26.20;42.86;94811.69;4991754;28;20556;-77
2023/09/01 11:17:38;;;;;;;6.78;3.80;;;;;;;26.32;42.72;94801.19;4991694;28;20649;-77
2023/09/01 11:20:08;;;;;;;6.00;3.55;;;;;;;26.40;42.42;94794.28;4991714;28;20190;-77
2023/09/01 11:22:38;;;;;;;6.07;3.58;;;;;;;26.70;41.73;94790.53;4991704;28;20268;-76
2023/09/01 11:25:09;;;;;;;6.25;3.42;;;;;;;26.78;41.45;94795.53;4991931;28;20210;-77
2023/09/01 11:27:36;;;;;;;7.28;3.50;;;;;;;27.05;41.39;94777.94;4991482;28;20212;-77
2023/09/01 11:30:04;;;;;;;5.32;3.60;;;;;;;27.11;41.16;94784.53;4991683;28;20232;-77
2023/09/01 11:32:31;;;;;;;6.20;3.28;;;;;;;27.11;41.01;94779.75;4991279;28;20210;-76
2023/09/01 11:35:00;;;;;;;5.25;3.78;;;;;;;26.53;41.25;94786.88;4991543;28;20209;-75
2023/09/01 11:37:40;;;;;;;4.90;3.05;;;;;;;26.68;41.56;94773.50;4991672;28;20237;-77